Time;durP1;ratioP1;P1;durP2;ratioP2;P2;SDS_P1;SDS_P2;PMS_P1;PMS_P2;Temp;Humidity;BMP_temperature;BMP_pressure;BME280_temperature;BME280_humidity;BME280_pressure;Samples;Min_cycle;Max_cycle;Signal;HPM_P1;HPM_P2
2019/07/08 00:00:47;;;;;;;6.1;4.1;;;;;;;;;;;;;
2019/07/08 00:03:11;;;;;;;4.7;3.9;;;;;;;;;;;;;
2019/07/08 00:05:35;;;;;;;4.8;3.8;;;;;;;;;;;;;
2019/07/08 00:08:04;;;;;;;6.6;4.5;;;;;;;;;;;;;
2019/07/08 00:10:26;;;;;;;5.5;4;;;;;;;;;;;;;
2019/07/08 00:12:51;;;;;;;4.3;3.9;;;;;;;;;;;;;
2019/07/08 00:15:16;;;;;;;4.3;3.9;;;;;;;;;;;;;
2019/07/08 00:17:42;;;;;;;6.4;3.7;;;;;;;;;;;;;
2019/07/08 00:20:08;;;;;;;6.4;4;;;;;;;;;;;;;
2019/07/08 00:22:31;;;;;;;5.2;4.2;;;;;;;;;;;;;
2019/07/08 00:24:57;;;;;;;6.4;3.9;;;;;;;;;;;;;
2019/07/08 00:27:23;;;;;;;6.7;3.9;;;;;;;;;;;;;
2019/07/08 00:29:50;;;;;;;5;3.8;;;;;;;;;;;;;
2019/07/08 00:32:14;;;;;;;5.5;4.4;;;;;;;;;;;;;
2019/07/08 00:34:42;;;;;;;5.1;4.1;;;;;;;;;;;;;
2019/07/08 00:37:05;;;;;;;6;4.8;;;;;;;;;;;;;
2019/07/08 00:39:32;;;;;;;6.4;4.4;;;;;;;;;;;;;
2019/07/08 00:41:59;;;;;;;5.7;3.6;;;;;;;;;;;;;
2019/07/08 00:44:26;;;;;;;4.7;4.1;;;;;;;;;;;;;
2019/07/08 00:46:47;;;;;;;6.6;4;;;;;;;;;;;;;
2019/07/08 00:49:12;;;;;;;5.7;4.2;;;;;;;;;;;;;
2019/07/08 00:51:37;;;;;;;5.7;4.1;;;;;;;;;;;;;
2019/07/08 00:54:05;;;;;;;7.8;4.2;;;;;;;;;;;;;
2019/07/08 00:56:28;;;;;;;6.1;4.4;;;;;;;;;;;;;
2019/07/08 00:58:55;;;;;;;8.6;4.6;;;;;;;;;;;;;
2019/07/08 01:01:21;;;;;;;8.8;5.1;;;;;;;;;;;;;
2019/07/08 01:03:45;;;;;;;7.4;5.3;;;;;;;;;;;;;
2019/07/08 01:06:12;;;;;;;5.9;5.3;;;;;;;;;;;;;
2019/07/08 01:08:41;;;;;;;6.8;4.6;;;;;;;;;;;;;
2019/07/08 01:16:23;;;;;;;7.4;5;;;;;;;;;;;;;
2019/07/08 01:18:47;;;;;;;5.4;4;;;;;;;;;;;;;
2019/07/08 01:21:17;;;;;;;8.1;4.6;;;;;;;;;;;;;
2019/07/08 01:23:37;;;;;;;7.2;4.6;;;;;;;;;;;;;
2019/07/08 01:26:02;;;;;;;6.3;4.9;;;;;;;;;;;;;
2019/07/08 01:28:31;;;;;;;5.5;5;;;;;;;;;;;;;
2019/07/08 01:30:57;;;;;;;5.8;5;;;;;;;;;;;;;
2019/07/08 01:33:18;;;;;;;7.5;4.9;;;;;;;;;;;;;
2019/07/08 01:35:44;;;;;;;5.7;4.8;;;;;;;;;;;;;
2019/07/08 01:38:08;;;;;;;7.8;5;;;;;;;;;;;;;
2019/07/08 01:40:39;;;;;;;6.3;5;;;;;;;;;;;;;
2019/07/08 01:43:00;;;;;;;6.8;4.9;;;;;;;;;;;;;
2019/07/08 01:45:24;;;;;;;5.5;4.5;;;;;;;;;;;;;
2019/07/08 01:47:50;;;;;;;5.4;4.7;;;;;;;;;;;;;
2019/07/08 01:50:17;;;;;;;5.8;4.1;;;;;;;;;;;;;
2019/07/08 01:52:43;;;;;;;4.6;4.1;;;;;;;;;;;;;
2019/07/08 01:55:07;;;;;;;4.9;4.4;;;;;;;;;;;;;
2019/07/08 01:57:38;;;;;;;8.4;4.7;;;;;;;;;;;;;
2019/07/08 01:59:58;;;;;;;6.2;4.6;;;;;;;;;;;;;
2019/07/08 02:02:24;;;;;;;7.2;4.3;;;;;;;;;;;;;
2019/07/08 02:04:51;;;;;;;6;3.8;;;;;;;;;;;;;
2019/07/08 02:07:17;;;;;;;5;3.3;;;;;;;;;;;;;
2019/07/08 02:09:41;;;;;;;4.8;3.2;;;;;;;;;;;;;
2019/07/08 02:12:06;;;;;;;4.6;3.4;;;;;;;;;;;;;
2019/07/08 02:14:35;;;;;;;4.9;3.5;;;;;;;;;;;;;
2019/07/08 02:16:57;;;;;;;4.5;3.8;;;;;;;;;;;;;
2019/07/08 02:19:22;;;;;;;7.6;3.9;;;;;;;;;;;;;
2019/07/08 02:21:48;;;;;;;8;4.6;;;;;;;;;;;;;
2019/07/08 02:24:20;;;;;;;5.3;4.5;;;;;;;;;;;;;
2019/07/08 02:26:42;;;;;;;5.6;4.9;;;;;;;;;;;;;
2019/07/08 02:29:03;;;;;;;6.2;5.2;;;;;;;;;;;;;
2019/07/08 02:31:29;;;;;;;7.1;5.7;;;;;;;;;;;;;
2019/07/08 02:33:56;;;;;;;8;5.8;;;;;;;;;;;;;
2019/07/08 02:36:23;;;;;;;6.9;6.2;;;;;;;;;;;;;
2019/07/08 02:38:53;;;;;;;8.6;6.7;;;;;;;;;;;;;
2019/07/08 02:41:20;;;;;;;7.5;6.8;;;;;;;;;;;;;
2019/07/08 02:43:48;;;;;;;8;7.2;;;;;;;;;;;;;
2019/07/08 02:46:15;;;;;;;9.9;7.8;;;;;;;;;;;;;
2019/07/08 02:48:35;;;;;;;8.6;7.7;;;;;;;;;;;;;
2019/07/08 02:51:00;;;;;;;11;7.8;;;;;;;;;;;;;
2019/07/08 02:53:26;;;;;;;9.1;8.2;;;;;;;;;;;;;
2019/07/08 02:56:00;;;;;;;9.4;8.5;;;;;;;;;;;;;
2019/07/08 02:58:27;;;;;;;8.5;7.6;;;;;;;;;;;;;
2019/07/08 03:00:51;;;;;;;9.1;7.7;;;;;;;;;;;;;
2019/07/08 03:03:11;;;;;;;8.2;7.4;;;;;;;;;;;;;
2019/07/08 03:05:37;;;;;;;8.9;8.1;;;;;;;;;;;;;
2019/07/08 03:08:06;;;;;;;8.4;7.1;;;;;;;;;;;;;
2019/07/08 03:10:27;;;;;;;7.9;7;;;;;;;;;;;;;
2019/07/08 03:12:54;;;;;;;8.2;7.4;;;;;;;;;;;;;
2019/07/08 03:15:17;;;;;;;8.9;8;;;;;;;;;;;;;
2019/07/08 03:17:41;;;;;;;10.5;7.5;;;;;;;;;;;;;
2019/07/08 03:23:03;;;;;;;9.5;8;;;;;;;;;;;;;
2019/07/08 03:25:27;;;;;;;9.7;8.2;;;;;;;;;;;;;
2019/07/08 03:27:52;;;;;;;9.1;7.8;;;;;;;;;;;;;
2019/07/08 03:30:22;;;;;;;11.2;9.2;;;;;;;;;;;;;
2019/07/08 03:32:43;;;;;;;8.7;7.8;;;;;;;;;;;;;
2019/07/08 03:35:09;;;;;;;8.6;7.7;;;;;;;;;;;;;
2019/07/08 03:37:39;;;;;;;9.2;8.3;;;;;;;;;;;;;
2019/07/08 03:40:03;;;;;;;12;9.9;;;;;;;;;;;;;
2019/07/08 03:42:25;;;;;;;11.6;9.7;;;;;;;;;;;;;
2019/07/08 03:44:55;;;;;;;10.5;9.4;;;;;;;;;;;;;
2019/07/08 03:47:18;;;;;;;11.2;10.1;;;;;;;;;;;;;
2019/07/08 03:49:43;;;;;;;12.6;10.8;;;;;;;;;;;;;
2019/07/08 03:52:07;;;;;;;9.8;8.8;;;;;;;;;;;;;
2019/07/08 03:54:40;;;;;;;11.7;9.6;;;;;;;;;;;;;
2019/07/08 03:57:01;;;;;;;11;9.6;;;;;;;;;;;;;
2019/07/08 03:59:27;;;;;;;10.2;9.2;;;;;;;;;;;;;
2019/07/08 04:02:31;;;;;;;11.1;9;;;;;;;16.56;82.78613;937.375;;;;
2019/07/08 04:04:59;;;;;;;10.3;9.2;;;;;;;16.62;83.73438;937.3945;;;;
2019/07/08 04:07:24;;;;;;;13.1;9.7;;;;;;;16.48;84.5625;937.39;;;;
2019/07/08 04:09:48;;;;;;;9.8;8.9;;;;;;;16.33;85.05566;937.3596;;;;
2019/07/08 04:12:15;;;;;;;11.4;7.6;;;;;;;16.29;84.52637;937.2573;;;;
2019/07/08 04:14:39;;;;;;;10.6;7.9;;;;;;;16.4;84.65332;937.2742;;;;
2019/07/08 04:17:04;;;;;;;12.2;8.9;;;;;;;16.44;84.74121;937.3303;;;;
2019/07/08 04:19:34;;;;;;;8.2;7.4;;;;;;;16.39;84.7666;937.3137;;;;
2019/07/08 04:22:11;;;;;;;8.3;7.5;;;;;;;16.43;84.38184;937.3521;;;;
2019/07/08 04:24:32;;;;;;;9.4;8.4;;;;;;;16.49;84.70313;937.4059;;;;
2019/07/08 04:26:55;;;;;;;9.8;8.2;;;;;;;16.61;84.49609;937.3783;;;;
2019/07/08 04:29:24;;;;;;;9.5;8.3;;;;;;;16.73;83.07129;937.48;;;;
2019/07/08 04:31:53;;;;;;;11.6;9.4;;;;;;;16.87;82.70508;937.4379;;;;
2019/07/08 04:34:21;;;;;;;11;9.2;;;;;;;16.94;82.83398;937.4761;;;;
2019/07/08 04:36:48;;;;;;;10.8;9.1;;;;;;;16.87;82.41504;937.5408;;;;
2019/07/08 04:39:13;;;;;;;10.6;8.7;;;;;;;16.98;82.40039;937.5823;;;;
2019/07/08 04:41:42;;;;;;;10.1;9.1;;;;;;;17.07;82.78711;937.4913;;;;
2019/07/08 04:44:06;;;;;;;11;9.6;;;;;;;17.04;83.21191;937.4772;;;;
2019/07/08 04:46:36;;;;;;;9.6;8.6;;;;;;;17.22;82.5957;937.4983;;;;
2019/07/08 04:49:01;;;;;;;11;8.6;;;;;;;17.32;83.08984;937.5547;;;;
2019/07/08 04:51:29;;;;;;;9.8;8.2;;;;;;;17.28;82.78125;937.5762;;;;
2019/07/08 04:53:54;;;;;;;9.7;8.3;;;;;;;17.37;82.00977;937.5958;;;;
2019/07/08 04:56:18;;;;;;;9.5;8.5;;;;;;;17.42;80.96387;937.6024;;;;
2019/07/08 04:58:41;;;;;;;9.3;8.3;;;;;;;17.44;80.95605;937.6085;;;;
2019/07/08 05:01:11;;;;;;;9.1;7.6;;;;;;;17.46;80.46094;937.6323;;;;
2019/07/08 05:03:35;;;;;;;8.5;7.7;;;;;;;17.66;79.0127;937.603;;;;
2019/07/08 05:06:00;;;;;;;8.5;7.6;;;;;;;17.69;78.48242;937.6005;;;;
2019/07/08 05:08:32;;;;;;;9.5;7.8;;;;;;;17.97;79.24219;937.6766;;;;
2019/07/08 05:10:56;;;;;;;7.9;7.1;;;;;;;18.18;76.97754;937.6638;;;;
2019/07/08 05:13:21;;;;;;;8.6;7.4;;;;;;;18.18;78.59277;937.634;;;;
2019/07/08 05:15:50;;;;;;;8.9;7.8;;;;;;;18.08;78.79688;937.6199;;;;
2019/07/08 05:18:21;;;;;;;8.6;7.4;;;;;;;18.09;81.12207;937.6108;;;;
2019/07/08 05:20:49;;;;;;;7;6.2;;;;;;;18.64;78.19824;937.6364;;;;
2019/07/08 05:23:18;;;;;;;8.2;6.7;;;;;;;18.98;76.50098;937.5974;;;;
2019/07/08 05:25:43;;;;;;;7.2;6.5;;;;;;;19;76.05078;937.5945;;;;
2019/07/08 05:28:11;;;;;;;7;6.3;;;;;;;19.02;75.28711;937.5917;;;;
2019/07/08 05:30:39;;;;;;;7.4;6.6;;;;;;;18.95;74.42578;937.7424;;;;
2019/07/08 05:33:06;;;;;;;7.6;6.6;;;;;;;18.99;74.53516;937.6987;;;;
2019/07/08 05:35:33;;;;;;;9.3;7.3;;;;;;;18.72;76.06152;937.7636;;;;
2019/07/08 05:38:02;;;;;;;7.9;7.1;;;;;;;18.49;76.17285;937.7367;;;;
2019/07/08 05:40:34;;;;;;;8.4;7.6;;;;;;;18.34;78.30762;937.8333;;;;
2019/07/08 05:42:57;;;;;;;7.9;7.1;;;;;;;18.4;77.87695;937.9158;;;;
2019/07/08 05:45:25;;;;;;;10.7;7;;;;;;;18.41;78.13477;937.9783;;;;
2019/07/08 05:47:46;;;;;;;7.7;7;;;;;;;18.52;77.43262;938.0425;;;;
2019/07/08 05:50:19;;;;;;;7.2;6.5;;;;;;;18.62;77.08008;937.9995;;;;
2019/07/08 05:52:48;;;;;;;9.2;7.8;;;;;;;18.61;75.95996;938.009;;;;
2019/07/08 05:55:13;;;;;;;10.9;8.1;;;;;;;18.51;77.7334;938.0872;;;;
2019/07/08 05:57:36;;;;;;;9.9;8.1;;;;;;;18.2;78.5166;938.0527;;;;
2019/07/08 06:00:10;;;;;;;8.7;7.9;;;;;;;18.28;77.21777;938.0553;;;;
2019/07/08 06:02:36;;;;;;;8.5;7.6;;;;;;;17.93;78.8623;938.1544;;;;
2019/07/08 06:05:02;;;;;;;9.4;8;;;;;;;17.89;78.5293;938.1858;;;;
2019/07/08 06:07:28;;;;;;;9;7.9;;;;;;;17.7;79.22656;938.1487;;;;
2019/07/08 06:09:59;;;;;;;8.3;7.5;;;;;;;17.67;79.43066;938.1602;;;;
2019/07/08 06:12:29;;;;;;;9.8;8.1;;;;;;;17.62;80.40723;938.2183;;;;
2019/07/08 06:14:56;;;;;;;8.4;7.6;;;;;;;17.54;80.84668;938.2452;;;;
2019/07/08 06:17:23;;;;;;;9.2;8.2;;;;;;;17.51;81.85156;938.2142;;;;
2019/07/08 06:19:54;;;;;;;8.5;7.7;;;;;;;17.35;81.47266;938.2375;;;;
2019/07/08 06:22:19;;;;;;;10;7.7;;;;;;;17.38;81.03906;938.2725;;;;
2019/07/08 06:24:48;;;;;;;8.8;8;;;;;;;17.57;81.18848;938.173;;;;
2019/07/08 06:27:18;;;;;;;9.3;7.8;;;;;;;17.7;80.70117;938.1189;;;;
2019/07/08 06:29:40;;;;;;;8.8;7.9;;;;;;;17.71;80.1582;938.1517;;;;
2019/07/08 06:32:09;;;;;;;9;8.1;;;;;;;17.67;80.45215;938.173;;;;
2019/07/08 06:34:38;;;;;;;12.5;8.4;;;;;;;17.54;81.02051;938.1719;;;;
2019/07/08 06:37:04;;;;;;;11.3;8.9;;;;;;;17.61;80.48828;938.1635;;;;
2019/07/08 06:39:29;;;;;;;10.4;8.9;;;;;;;17.51;80.6084;938.0517;;;;
2019/07/08 06:42:00;;;;;;;9.1;8.2;;;;;;;17.75;79.34082;938.0736;;;;
2019/07/08 06:44:34;;;;;;;9.8;8.2;;;;;;;18.18;78.23242;938.0378;;;;
2019/07/08 06:46:57;;;;;;;9.2;7.9;;;;;;;18.22;78.67188;938.0581;;;;
2019/07/08 06:49:21;;;;;;;9.5;8.5;;;;;;;18.25;77.72363;937.9987;;;;
2019/07/08 06:51:51;;;;;;;9.4;8.1;;;;;;;18.45;77.91016;938.0383;;;;
2019/07/08 06:54:19;;;;;;;11;8.1;;;;;;;18.25;76.52734;938.1237;;;;
2019/07/08 06:56:47;;;;;;;9.7;8.2;;;;;;;18.34;77.47266;938.2153;;;;
2019/07/08 06:59:14;;;;;;;9.9;8.4;;;;;;;18.23;78.09082;938.1732;;;;
2019/07/08 07:01:42;;;;;;;10.2;7.7;;;;;;;18.68;76.93848;938.1776;;;;
2019/07/08 07:04:06;;;;;;;7.9;7.1;;;;;;;19.06;73.8623;938.2673;;;;
2019/07/08 07:06:33;;;;;;;8.2;7.3;;;;;;;19.39;73.55371;938.3025;;;;
2019/07/08 07:09:00;;;;;;;10.7;8;;;;;;;19.21;74.0498;938.2903;;;;
2019/07/08 07:11:28;;;;;;;10.7;8.1;;;;;;;18.87;73.79395;938.3123;;;;
2019/07/08 07:13:54;;;;;;;9.6;8.6;;;;;;;18.64;74.63867;938.3591;;;;
2019/07/08 07:16:22;;;;;;;9.9;8.9;;;;;;;18.4;75.25195;938.3495;;;;
2019/07/08 07:18:50;;;;;;;10.2;9.2;;;;;;;18.09;76.20801;938.4311;;;;
2019/07/08 07:21:18;;;;;;;11.1;9.4;;;;;;;18.02;76.2998;938.3887;;;;
2019/07/08 07:23:42;;;;;;;9.6;8.7;;;;;;;17.95;75.68359;938.436;;;;
2019/07/08 07:26:20;;;;;;;10.1;9.1;;;;;;;17.98;76.30566;938.4363;;;;
2019/07/08 07:28:53;;;;;;;11.2;9.6;;;;;;;17.95;76.65918;938.436;;;;
2019/07/08 07:31:26;;;;;;;12.1;9.9;;;;;;;17.64;77.20898;938.3789;;;;
2019/07/08 07:33:54;;;;;;;12.7;9.7;;;;;;;17.86;77.8291;938.4077;;;;
2019/07/08 07:36:27;;;;;;;11.7;8.6;;;;;;;17.7;76.83594;938.3767;;;;
2019/07/08 07:38:54;;;;;;;10.9;8.8;;;;;;;18.1;76.11719;938.4084;;;;
2019/07/08 07:41:21;;;;;;;10.4;7.9;;;;;;;18.52;75.50391;938.3433;;;;
2019/07/08 07:43:45;;;;;;;9.7;6.8;;;;;;;19;71.68652;938.2957;;;;
2019/07/08 07:46:14;;;;;;;7.5;6.8;;;;;;;19.22;72.62988;938.3588;;;;
2019/07/08 07:48:46;;;;;;;8;7;;;;;;;19.12;71.51953;938.3845;;;;
2019/07/08 07:51:14;;;;;;;7.4;6.7;;;;;;;18.97;71.87891;938.4725;;;;
2019/07/08 07:53:45;;;;;;;7.7;6.9;;;;;;;19.56;72.52344;938.4264;;;;
2019/07/08 07:56:18;;;;;;;9.5;7.2;;;;;;;19.61;70.84082;938.3984;;;;
2019/07/08 07:58:42;;;;;;;8.9;7.2;;;;;;;19.5;72.15137;938.3962;;;;
2019/07/08 08:01:14;;;;;;;9;7.2;;;;;;;19.65;70.58008;938.4286;;;;
2019/07/08 08:03:45;;;;;;;9.5;7.6;;;;;;;19.9;69.6748;938.4514;;;;
2019/07/08 08:06:08;;;;;;;8.6;7.2;;;;;;;20.36;69.01172;938.399;;;;
2019/07/08 08:08:35;;;;;;;8.2;6.5;;;;;;;21.39;66.86523;938.4045;;;;
2019/07/08 08:11:02;;;;;;;12.7;6;;;;;;;22.95;60.93457;938.4459;;;;
2019/07/08 08:13:36;;;;;;;7.3;6.4;;;;;;;23.05;58.7998;938.4788;;;;
2019/07/08 08:15:59;;;;;;;7.2;6.4;;;;;;;22.67;60.16895;938.4678;;;;
2019/07/08 08:18:33;;;;;;;7.8;7;;;;;;;22.21;61.36133;938.5203;;;;
2019/07/08 08:21:02;;;;;;;8.2;6.9;;;;;;;22.19;61.58008;938.5364;;;;
2019/07/08 08:23:27;;;;;;;7.8;7.1;;;;;;;21.77;62.1084;938.5245;;;;
2019/07/08 08:25:52;;;;;;;8.4;7.1;;;;;;;20.77;63.38184;938.5356;;;;
2019/07/08 08:28:23;;;;;;;8.4;7.1;;;;;;;20.37;64.87793;938.5583;;;;
2019/07/08 08:30:48;;;;;;;8.9;7.4;;;;;;;19.7;67.40332;938.5897;;;;
2019/07/08 08:33:20;;;;;;;8.4;7;;;;;;;19.33;69.1875;938.6027;;;;
2019/07/08 08:35:54;;;;;;;8.1;7;;;;;;;19.09;71.32813;938.5901;;;;
2019/07/08 08:38:28;;;;;;;6.8;6.1;;;;;;;19.26;70.93555;938.6036;;;;
2019/07/08 08:40:47;;;;;;;6.8;6.1;;;;;;;19.13;70.9502;938.5853;;;;
2019/07/08 08:43:15;;;;;;;6.7;5.7;;;;;;;20.01;68.47754;938.6094;;;;
2019/07/08 08:45:47;;;;;;;5.8;5.2;;;;;;;20.63;65.81641;938.5891;;;;
2019/07/08 08:48:20;;;;;;;6.1;5.5;;;;;;;20.36;66.32617;938.6061;;;;
2019/07/08 08:50:51;;;;;;;6.8;5;;;;;;;20.85;65.90723;938.6631;;;;
2019/07/08 08:53:23;;;;;;;6;5.4;;;;;;;20.52;65.43848;938.5823;;;;
2019/07/08 08:55:58;;;;;;;6.6;5.7;;;;;;;20.82;66.93164;938.5892;;;;
2019/07/08 08:58:21;;;;;;;6.1;5.6;;;;;;;21.28;65.28125;938.6356;;;;
2019/07/08 09:00:49;;;;;;;6.1;5.5;;;;;;;21.23;63.76563;938.7103;;;;
2019/07/08 09:03:18;;;;;;;6.9;6.2;;;;;;;21.2;64.55664;938.6713;;;;
2019/07/08 09:05:49;;;;;;;7.2;6.6;;;;;;;21.06;65.99609;938.7728;;;;
2019/07/08 09:08:18;;;;;;;7.9;6.9;;;;;;;20.9;66.66309;938.8422;;;;
2019/07/08 09:10:47;;;;;;;7.2;6.6;;;;;;;20.45;66;938.8972;;;;
2019/07/08 09:13:14;;;;;;;8.8;7.6;;;;;;;20.22;67.64551;938.8024;;;;
2019/07/08 09:15:48;;;;;;;8.1;7.3;;;;;;;20.01;68.76953;938.7994;;;;
2019/07/08 09:18:19;;;;;;;8.3;7.5;;;;;;;19.86;70.12109;938.8195;;;;
2019/07/08 09:20:50;;;;;;;10.8;8.4;;;;;;;19.78;70.35449;938.8552;;;;
2019/07/08 09:23:14;;;;;;;9.5;8.5;;;;;;;19.67;71.05957;938.8959;;;;
2019/07/08 09:25:45;;;;;;;8.5;7.7;;;;;;;19.73;70.39258;938.9656;;;;
2019/07/08 09:28:10;;;;;;;10.6;8.2;;;;;;;19.47;70.30566;938.9938;;;;
2019/07/08 09:30:45;;;;;;;8.5;7.8;;;;;;;19.44;71.03613;938.9758;;;;
2019/07/08 09:33:15;;;;;;;9.1;8.2;;;;;;;19.79;70.25;938.9327;;;;
2019/07/08 09:35:49;;;;;;;8.9;8;;;;;;;19.74;70.54785;938.9377;;;;
2019/07/08 09:38:20;;;;;;;9;8.1;;;;;;;19.6;69.70801;939.012;;;;
2019/07/08 09:40:50;;;;;;;9.2;8.3;;;;;;;19.16;71.21094;939.0334;;;;
2019/07/08 09:43:17;;;;;;;9;8.1;;;;;;;18.79;72.76855;939.0198;;;;
2019/07/08 09:45:56;;;;;;;9.9;8.8;;;;;;;18.49;72.41504;939.0229;;;;
2019/07/08 09:48:24;;;;;;;9.4;8.4;;;;;;;18.36;74.37012;939.1164;;;;
2019/07/08 09:50:50;;;;;;;9.7;8.7;;;;;;;18.47;73.77441;939.0508;;;;
2019/07/08 09:53:20;;;;;;;9.9;8.9;;;;;;;18.54;73.48242;939.0381;;;;
2019/07/08 09:55:45;;;;;;;10.1;9.1;;;;;;;18.65;72.50293;939.067;;;;
2019/07/08 09:58:12;;;;;;;9.5;8.5;;;;;;;18.53;73.40137;939.048;;;;
2019/07/08 10:00:36;;;;;;;9.7;8.8;;;;;;;18.73;72.66602;939.0574;;;;
2019/07/08 10:03:01;;;;;;;10.8;9.7;;;;;;;18.85;71.92871;939.1326;;;;
2019/07/08 10:05:45;;;;;;;9.9;9;;;;;;;18.67;72.94629;939.1644;;;;
2019/07/08 10:08:37;;;;;;;10.1;9.1;;;;;;;18.45;73.94434;939.1916;;;;
2019/07/08 10:11:08;;;;;;;9.9;8.9;;;;;;;18.04;75.66602;939.2322;;;;
2019/07/08 10:13:33;;;;;;;10.6;9.5;;;;;;;18.09;75.84766;939.2048;;;;
2019/07/08 10:16:20;;;;;;;11.3;9.6;;;;;;;17.87;77.70215;939.2963;;;;
2019/07/08 10:18:52;;;;;;;11.4;9.6;;;;;;;17.9;76.10449;939.3876;;;;
2019/07/08 10:21:25;;;;;;;10.7;9.7;;;;;;;17.72;77.31641;939.3741;;;;
2019/07/08 10:23:57;;;;;;;10.7;9.7;;;;;;;17.74;78.24805;939.3553;;;;
2019/07/08 10:26:25;;;;;;;10.1;9.1;;;;;;;17.81;77.82031;939.3461;;;;
2019/07/08 10:28:51;;;;;;;11.6;10.4;;;;;;;17.82;77.87988;939.3283;;;;
2019/07/08 10:31:24;;;;;;;12.5;10.8;;;;;;;17.95;78.18066;939.2908;;;;
2019/07/08 10:33:48;;;;;;;10.4;9.4;;;;;;;18;77.05078;939.2336;;;;
2019/07/08 10:36:20;;;;;;;9.7;8.8;;;;;;;17.76;77.86816;939.2366;;;;
2019/07/08 10:38:59;;;;;;;9.3;8.4;;;;;;;18.14;78.28613;939.3321;;;;
2019/07/08 10:41:27;;;;;;;8;7.2;;;;;;;18.19;77.62012;939.2828;;;;
2019/07/08 10:43:54;;;;;;;7.7;7;;;;;;;18.54;77.74023;939.2695;;;;
2019/07/08 10:46:19;;;;;;;7.4;6.7;;;;;;;18.8;75.62012;939.3069;;;;
2019/07/08 10:48:51;;;;;;;6.8;6.1;;;;;;;18.96;76.11426;939.3345;;;;
2019/07/08 10:51:19;;;;;;;7.9;7.2;;;;;;;19.12;74.7334;939.4476;;;;
2019/07/08 10:53:49;;;;;;;8.3;7.5;;;;;;;18.71;76.03516;939.4475;;;;
2019/07/08 10:56:26;;;;;;;8.7;7.9;;;;;;;18.77;75.96484;939.418;;;;
2019/07/08 10:58:57;;;;;;;8.3;7.4;;;;;;;18.8;75.67871;939.3844;;;;
2019/07/08 11:01:25;;;;;;;7.9;7.2;;;;;;;18.94;75.5293;939.4835;;;;
2019/07/08 11:03:48;;;;;;;8.4;7.6;;;;;;;19.19;75.44238;939.4478;;;;
2019/07/08 11:06:24;;;;;;;8.8;7.9;;;;;;;19.18;75.08105;939.5472;;;;
2019/07/08 11:09:00;;;;;;;8.4;7.6;;;;;;;19.2;74.93359;939.4756;;;;
2019/07/08 11:11:29;;;;;;;8.2;7.5;;;;;;;19.16;74.04004;939.5372;;;;
2019/07/08 11:13:56;;;;;;;9.2;8.3;;;;;;;18.79;76.99219;939.4419;;;;
2019/07/08 11:16:23;;;;;;;10.5;8.9;;;;;;;19;76.75;939.3416;;;;
2019/07/08 11:18:53;;;;;;;9.8;8.9;;;;;;;19.22;74.33105;939.4005;;;;
2019/07/08 11:21:22;;;;;;;9.9;9;;;;;;;19.52;73.47168;939.2721;;;;
2019/07/08 11:23:52;;;;;;;10;9;;;;;;;19.43;74.70313;939.266;;;;
2019/07/08 11:26:20;;;;;;;9.2;8.3;;;;;;;19.35;73.18652;939.2079;;;;
2019/07/08 11:28:53;;;;;;;9.3;8.5;;;;;;;19.49;73.4668;939.2581;;;;
2019/07/08 11:31:23;;;;;;;9.5;8.7;;;;;;;19.46;73.27441;939.3058;;;;
2019/07/08 11:34:00;;;;;;;9.7;8.7;;;;;;;19.46;73.57813;939.2929;;;;
2019/07/08 11:36:22;;;;;;;10.3;9.4;;;;;;;19.12;75.52441;939.4039;;;;
2019/07/08 11:38:50;;;;;;;10.9;9.8;;;;;;;18.9;76.74316;939.4625;;;;
2019/07/08 11:41:18;;;;;;;10.3;9.2;;;;;;;18.81;76.29688;939.3962;;;;
2019/07/08 11:43:54;;;;;;;10.4;9.4;;;;;;;18.72;76.76953;939.386;;;;
2019/07/08 11:46:27;;;;;;;10.3;9.4;;;;;;;18.48;77.31055;939.3812;;;;
2019/07/08 11:48:54;;;;;;;10.8;9.8;;;;;;;18.36;78.00879;939.413;;;;
2019/07/08 11:51:24;;;;;;;10.4;9.4;;;;;;;18.41;77.99512;939.3766;;;;
2019/07/08 11:53:55;;;;;;;10.3;9.3;;;;;;;18.5;78.0127;939.3477;;;;
2019/07/08 11:56:22;;;;;;;10.7;9.7;;;;;;;18.44;79.03516;939.3731;;;;
2019/07/08 11:58:47;;;;;;;10.5;9.4;;;;;;;18.28;78.18066;939.4017;;;;
2019/07/08 12:01:19;;;;;;;10.7;9.7;;;;;;;18.42;78.23047;939.4008;;;;
2019/07/08 12:03:44;;;;;;;10.8;9.8;;;;;;;18.68;78.35742;939.3997;;;;
2019/07/08 12:06:11;;;;;;;10.4;9.5;;;;;;;18.51;79.78027;939.3686;;;;
2019/07/08 12:08:46;;;;;;;10.1;9.2;;;;;;;18.68;77.76367;939.2706;;;;
2019/07/08 12:11:13;;;;;;;9.5;8.6;;;;;;;18.6;77.33105;939.3878;;;;
2019/07/08 12:13:35;;;;;;;9.7;8.8;;;;;;;18.57;77.46582;939.3391;;;;
2019/07/08 12:16:04;;;;;;;10.6;9.5;;;;;;;18.78;77.73535;939.2492;;;;
2019/07/08 12:18:27;;;;;;;10.2;9.2;;;;;;;18.74;77.19336;939.1934;;;;
2019/07/08 12:20:53;;;;;;;11.6;10.4;;;;;;;18.69;78.36035;939.2985;;;;
2019/07/08 12:23:29;;;;;;;12.1;9.9;;;;;;;18.65;78.0166;939.3123;;;;
2019/07/08 12:25:51;;;;;;;12.1;10.9;;;;;;;18.43;78.27734;939.2748;;;;
2019/07/08 12:28:19;;;;;;;12.7;11.5;;;;;;;18.38;79.54785;939.2256;;;;
2019/07/08 12:30:45;;;;;;;12.3;11.1;;;;;;;18.32;79.25977;939.2452;;;;
2019/07/08 12:33:20;;;;;;;12.9;11.6;;;;;;;18.29;79.22949;939.2152;;;;
2019/07/08 12:35:42;;;;;;;13.1;11.8;;;;;;;18.34;79.46973;939.3554;;;;
2019/07/08 12:38:05;;;;;;;12.4;11.2;;;;;;;18.32;79.75879;939.3186;;;;
2019/07/08 12:40:32;;;;;;;13.1;11.8;;;;;;;18.27;80.15625;939.2558;;;;
2019/07/08 12:42:58;;;;;;;12.7;11.5;;;;;;;18.34;79.80859;939.3376;;;;
2019/07/08 12:45:31;;;;;;;12.7;11.5;;;;;;;18.44;79.64063;939.3771;;;;
2019/07/08 12:47:56;;;;;;;12.3;11;;;;;;;18.47;79.05469;939.3644;;;;
2019/07/08 12:50:30;;;;;;;12.7;11.4;;;;;;;18.39;79.74707;939.4222;;;;
2019/07/08 12:53:12;;;;;;;13;10.7;;;;;;;18.46;79.20117;939.3405;;;;
2019/07/08 12:55:34;;;;;;;11.5;10.3;;;;;;;18.5;79.39453;939.3397;;;;
2019/07/08 12:57:59;;;;;;;10.4;9.3;;;;;;;18.59;78.44629;939.5218;;;;
2019/07/08 13:00:33;;;;;;;11;9.9;;;;;;;18.55;79.4043;939.4928;;;;
2019/07/08 13:02:58;;;;;;;10.4;9.3;;;;;;;18.41;78.72754;939.4233;;;;
2019/07/08 13:05:23;;;;;;;11.1;10;;;;;;;18.52;78.81641;939.5006;;;;
2019/07/08 13:07:53;;;;;;;10.7;9.6;;;;;;;18.29;79.24121;939.5457;;;;
2019/07/08 13:13:41;;;;;;;9.8;8.9;;;;;;;18.15;80.37695;939.4949;;;;
2019/07/08 13:16:16;;;;;;;10.1;9.1;;;;;;;18.14;80.80664;939.4869;;;;
2019/07/08 13:18:48;;;;;;;9.7;8.8;;;;;;;18.29;80.78711;939.6102;;;;
2019/07/08 13:21:17;;;;;;;9.4;8.5;;;;;;;18.06;80.16309;939.5527;;;;
2019/07/08 13:23:44;;;;;;;10.4;9.3;;;;;;;18.02;80.2959;939.4672;;;;
2019/07/08 13:26:13;;;;;;;11.1;10;;;;;;;17.97;80.82227;939.5121;;;;
2019/07/08 13:28:48;;;;;;;10.7;9.6;;;;;;;17.89;81.74805;939.5175;;;;
2019/07/08 13:31:11;;;;;;;10.8;9.7;;;;;;;17.8;82.32129;939.5541;;;;
2019/07/08 13:33:39;;;;;;;11.2;10;;;;;;;17.77;83.02441;939.5578;;;;
2019/07/08 13:36:07;;;;;;;10.6;9.5;;;;;;;17.8;81.78711;939.6186;;;;
2019/07/08 13:38:41;;;;;;;9.3;7.8;;;;;;;17.89;81.31836;939.5513;;;;
2019/07/08 13:41:11;;;;;;;8.5;7.7;;;;;;;17.86;81.96191;939.5471;;;;
2019/07/08 13:43:34;;;;;;;8;7.2;;;;;;;18.05;82.58887;939.5536;;;;
2019/07/08 13:46:08;;;;;;;7.2;6.5;;;;;;;18.14;81.51563;939.6584;;;;
2019/07/08 13:48:32;;;;;;;7.2;6.3;;;;;;;18.28;80.08789;939.6071;;;;
2019/07/08 13:51:02;;;;;;;6.8;6.2;;;;;;;18.46;79.63086;939.6372;;;;
2019/07/08 13:53:28;;;;;;;7.3;6.3;;;;;;;18.44;80.78027;939.5964;;;;
2019/07/08 13:55:55;;;;;;;7.4;6.7;;;;;;;18.42;79.25391;939.4614;;;;
2019/07/08 13:58:21;;;;;;;7;6.3;;;;;;;18.46;80.67773;939.4785;;;;
2019/07/08 14:00:53;;;;;;;6.2;5.6;;;;;;;18.54;80.97266;939.4203;;;;
2019/07/08 14:03:19;;;;;;;6.6;6;;;;;;;18.46;79.44531;939.3276;;;;
2019/07/08 14:05:47;;;;;;;7.9;6.6;;;;;;;18.52;79.86523;939.3666;;;;
2019/07/08 14:08:16;;;;;;;8.8;6.5;;;;;;;18.86;78.90137;939.3938;;;;
2019/07/08 14:10:44;;;;;;;8.4;7.6;;;;;;;18.9;79.12891;939.3681;;;;
2019/07/08 14:13:11;;;;;;;7.3;6.6;;;;;;;18.39;78.77246;939.3052;;;;
2019/07/08 14:15:41;;;;;;;7.4;6.7;;;;;;;18.22;79.10059;939.3226;;;;
2019/07/08 14:18:21;;;;;;;7.8;7;;;;;;;18.34;80.07422;939.3554;;;;
2019/07/08 14:20:52;;;;;;;8;7.2;;;;;;;18.45;79.04785;939.3722;;;;
2019/07/08 14:23:16;;;;;;;8.5;7.6;;;;;;;18.51;81.22168;939.3516;;;;
2019/07/08 14:25:54;;;;;;;9.3;8.4;;;;;;;18.57;81.48926;939.3311;;;;
2019/07/08 14:28:11;;;;;;;6.8;6.1;;;;;;;18.44;79.31348;939.4078;;;;
2019/07/08 14:30:46;;;;;;;7.7;6.2;;;;;;;18.32;78.66699;939.3613;;;;
2019/07/08 14:33:12;;;;;;;6.6;5.9;;;;;;;18.2;78.98047;939.3721;;;;
2019/07/08 14:35:41;;;;;;;7.9;6.4;;;;;;;18.16;80.04199;939.4503;;;;
2019/07/08 14:38:06;;;;;;;7.1;6.3;;;;;;;18.31;80.5332;939.5269;;;;
2019/07/08 14:40:39;;;;;;;8.9;7.1;;;;;;;18.35;80.77344;939.4617;;;;
2019/07/08 14:43:04;;;;;;;7.9;7.1;;;;;;;18.16;80.64746;939.3937;;;;
2019/07/08 14:45:32;;;;;;;8.9;8;;;;;;;18.15;82.24805;939.4681;;;;
2019/07/08 14:47:59;;;;;;;8.9;8;;;;;;;18.18;82.03223;939.4177;;;;
2019/07/08 14:50:28;;;;;;;9.3;8.4;;;;;;;18.24;81.56738;939.3677;;;;
2019/07/08 14:52:53;;;;;;;10.1;8.3;;;;;;;17.88;82.84766;939.4202;;;;
2019/07/08 14:55:18;;;;;;;10.5;8.7;;;;;;;18.04;83.20508;939.4644;;;;
2019/07/08 14:57:47;;;;;;;10.1;8.2;;;;;;;18.16;82.44824;939.4542;;;;
2019/07/08 15:00:18;;;;;;;9.5;8.6;;;;;;;18.19;82.44238;939.4504;;;;
2019/07/08 15:02:42;;;;;;;9;8.1;;;;;;;18.19;81.36133;939.4376;;;;
2019/07/08 15:05:13;;;;;;;8.4;7.1;;;;;;;17.67;82.4834;939.4189;;;;
2019/07/08 15:07:36;;;;;;;10.3;8.9;;;;;;;17.45;84.21777;939.3641;;;;
2019/07/08 15:10:04;;;;;;;11.3;10.2;;;;;;;17.58;85.24121;939.3605;;;;
2019/07/08 15:12:32;;;;;;;10.8;9.7;;;;;;;17.84;83.59668;939.4289;;;;
2019/07/08 15:15:20;;;;;;;9.7;8.7;;;;;;;17.96;82.09766;939.397;;;;
2019/07/08 15:17:44;;;;;;;8;7.3;;;;;;;18.08;80.99316;939.3178;;;;
2019/07/08 15:20:22;;;;;;;9.1;8.3;;;;;;;17.97;82.07617;939.3614;;;;
2019/07/08 15:22:48;;;;;;;8.2;7.3;;;;;;;17.72;81.65625;939.375;;;;
2019/07/08 15:25:22;;;;;;;8.6;7.8;;;;;;;18.01;81.63184;939.3904;;;;
2019/07/08 15:27:53;;;;;;;9.1;8.3;;;;;;;18.13;81.82617;939.4193;;;;
2019/07/08 15:30:19;;;;;;;8.7;7.8;;;;;;;18.06;81.37109;939.2264;;;;
2019/07/08 15:32:50;;;;;;;10.4;9.4;;;;;;;18.1;82.54102;939.1483;;;;
2019/07/08 15:35:21;;;;;;;11.5;10.3;;;;;;;18.22;82.32129;939.0472;;;;
2019/07/08 15:37:48;;;;;;;10.5;8.3;;;;;;;18.14;81.57227;939.0574;;;;
2019/07/08 15:40:18;;;;;;;10.2;9;;;;;;;18.02;83.26953;939.0592;;;;
2019/07/08 15:42:51;;;;;;;9.9;8.9;;;;;;;18.16;83.44824;939.0544;;;;
2019/07/08 15:45:15;;;;;;;11.8;9.1;;;;;;;18.09;83.07422;939.0421;;;;
2019/07/08 15:47:49;;;;;;;11.4;8.8;;;;;;;18.15;83.40918;939.0563;;;;
2019/07/08 15:50:20;;;;;;;9.1;8.1;;;;;;;18.19;83.15039;938.9991;;;;